Time;durP1;ratioP1;P1;durP2;ratioP2;P2;SDS_P1;SDS_P2;PMS_P1;PMS_P2;Temp;Humidity;BMP_temperature;BMP_pressure;BME280_temperature;BME280_humidity;BME280_pressure;Samples;Min_cycle;Max_cycle;Signal;HPM_P1;HPM_P2
2023/05/05 00:02:35;;;;;;;16.27;8.45;;;;;;;;;;6346245;27;20327;-81
2023/05/05 00:05:35;;;;;;;16.27;8.53;;;;;;;;;;6357874;27;20015;-81
2023/05/05 00:08:36;;;;;;;20.90;8.65;;;;;;;;;;6355677;27;20074;-82
2023/05/05 00:11:36;;;;;;;20.80;8.30;;;;;;;;;;6331111;27;20489;-81
2023/05/05 00:14:36;;;;;;;15.50;7.17;;;;;;;;;;6358162;27;20461;-81
2023/05/05 00:17:37;;;;;;;17.30;6.80;;;;;;;;;;6350580;27;20058;-82
2023/05/05 00:20:37;;;;;;;17.70;7.67;;;;;;;;;;6352541;27;20154;-81
2023/05/05 00:23:37;;;;;;;12.82;6.65;;;;;;;;;;6355242;27;20020;-81
2023/05/05 00:26:37;;;;;;;13.25;7.20;;;;;;;;;;6345178;27;20477;-81
2023/05/05 00:29:37;;;;;;;16.28;7.06;;;;;;;;;;6354621;27;20072;-81
2023/05/05 00:32:38;;;;;;;13.00;6.10;;;;;;;;;;6356680;27;20047;-81
2023/05/05 00:35:38;;;;;;;9.60;6.10;;;;;;;;;;6346878;27;20110;-82
2023/05/05 00:38:38;;;;;;;15.53;7.20;;;;;;;;;;6344001;28;20115;-82
2023/05/05 00:41:39;;;;;;;15.05;7.07;;;;;;;;;;6365530;27;20035;-82
2023/05/05 00:44:40;;;;;;;16.47;7.30;;;;;;;;;;6348321;27;20081;-82
2023/05/05 00:47:41;;;;;;;15.95;7.82;;;;;;;;;;6354465;28;20046;-82
2023/05/05 00:50:42;;;;;;;13.88;6.53;;;;;;;;;;6354274;28;20019;-81
2023/05/05 00:53:43;;;;;;;13.10;6.23;;;;;;;;;;6355017;28;20032;-81
2023/05/05 00:56:44;;;;;;;11.00;6.78;;;;;;;;;;6346856;27;20403;-81
2023/05/05 00:59:45;;;;;;;12.85;6.72;;;;;;;;;;6340777;27;20088;-80
2023/05/05 01:02:46;;;;;;;14.82;7.40;;;;;;;;;;6358642;28;20027;-81
2023/05/05 01:05:49;;;;;;;16.30;7.22;;;;;;;;;;6333313;28;20035;-81
2023/05/05 01:09:00;;;;;;;17.08;7.38;;;;;;;;;;6352510;27;20027;-81
2023/05/05 01:12:03;;;;;;;13.73;7.55;;;;;;;;;;6352359;27;20027;-81
2023/05/05 01:15:03;;;;;;;19.38;7.60;;;;;;;;;;6350904;27;20028;-81
2023/05/05 01:18:04;;;;;;;14.57;6.82;;;;;;;;;;6354945;27;20019;-81
2023/05/05 01:21:13;;;;;;;14.93;6.78;;;;;;;;;;6357379;27;20047;-81
2023/05/05 01:24:16;;;;;;;13.70;6.72;;;;;;;;;;6362380;27;20405;-82
2023/05/05 01:27:16;;;;;;;14.43;5.85;;;;;;;;;;6358291;27;20024;-81
2023/05/05 01:30:35;;;;;;;10.20;5.82;;;;;;;;;;6338268;27;20031;-81
2023/05/05 01:33:40;;;;;;;15.63;7.55;;;;;;;;;;6347937;27;20019;-81
2023/05/05 01:36:43;;;;;;;16.77;7.38;;;;;;;;;;6351953;27;20063;-81
2023/05/05 01:39:45;;;;;;;15.25;7.65;;;;;;;;;;6359251;27;20019;-81
2023/05/05 01:42:46;;;;;;;15.10;8.20;;;;;;;;;;6360296;27;20026;-81
2023/05/05 01:45:46;;;;;;;13.93;7.20;;;;;;;;;;6357127;27;20023;-81
2023/05/05 01:48:47;;;;;;;14.90;7.03;;;;;;;;;;6361526;27;20047;-81
2023/05/05 01:51:48;;;;;;;12.85;7.20;;;;;;;;;;6352634;27;20028;-81
2023/05/05 01:54:50;;;;;;;11.20;6.22;;;;;;;;;;6370972;27;20019;-82
2023/05/05 01:57:51;;;;;;;15.80;6.18;;;;;;;;;;6363257;27;20024;-81
2023/05/05 02:00:52;;;;;;;14.73;7.78;;;;;;;;;;6352284;27;20022;-81
2023/05/05 02:03:54;;;;;;;12.95;6.55;;;;;;;;;;6352511;27;20030;-82
2023/05/05 02:06:55;;;;;;;;;;;;;;;;;;6362474;27;20023;-80
2023/05/05 02:09:55;;;;;;;16.33;7.53;;;;;;;;;;6362538;27;19914;-81
2023/05/05 02:12:57;;;;;;;15.18;7.07;;;;;;;;;;6360849;27;20469;-81
2023/05/05 02:15:57;;;;;;;;;;;;;;;;;;6353772;27;20492;-81
2023/05/05 02:19:00;;;;;;;13.35;6.68;;;;;;;;;;6349244;27;19983;-82
2023/05/05 02:22:00;;;;;;;13.52;7.68;;;;;;;;;;6350174;27;20054;-81
2023/05/05 02:25:00;;;;;;;13.88;6.88;;;;;;;;;;6353183;27;20027;-81
2023/05/05 02:28:01;;;;;;;12.60;7.13;;;;;;;;;;6352637;27;20064;-81
2023/05/05 02:31:03;;;;;;;11.13;6.07;;;;;;;;;;6363406;27;20015;-82
2023/05/05 02:34:03;;;;;;;;;;;;;;;;;;6351937;27;20068;-82
2023/05/05 02:37:05;;;;;;;11.93;6.72;;;;;;;;;;6347971;27;19947;-82
2023/05/05 02:40:05;;;;;;;;;;;;;;;;;;6353150;27;20026;-81
2023/05/05 02:43:08;;;;;;;12.90;7.13;;;;;;;;;;6358082;27;19907;-81
2023/05/05 02:46:08;;;;;;;17.38;7.70;;;;;;;;;;6335117;27;20023;-82
2023/05/05 02:49:09;;;;;;;11.90;6.35;;;;;;;;;;6349031;27;20182;-81
2023/05/05 02:52:09;;;;;;;14.20;7.10;;;;;;;;;;6361719;27;20468;-82
2023/05/05 02:55:09;;;;;;;13.50;7.53;;;;;;;;;;6349556;27;20019;-81
2023/05/05 02:58:31;;;;;;;11.00;6.23;;;;;;;;;;6371656;27;20028;-82
2023/05/05 03:01:45;;;;;;;13.85;6.90;;;;;;;;;;6338314;27;20069;-82
2023/05/05 03:04:50;;;;;;;16.33;7.05;;;;;;;;;;6357972;27;20024;-81
2023/05/05 03:07:54;;;;;;;12.00;7.05;;;;;;;;;;6359205;27;20028;-81
2023/05/05 03:11:03;;;;;;;16.35;8.23;;;;;;;;;;6365570;27;20393;-81
2023/05/05 03:14:09;;;;;;;12.27;8.05;;;;;;;;;;6343944;27;20023;-81
2023/05/05 03:17:10;;;;;;;15.10;6.65;;;;;;;;;;6362577;27;20031;-81
2023/05/05 03:20:11;;;;;;;12.20;6.43;;;;;;;;;;6361233;27;20027;-81
2023/05/05 03:23:17;;;;;;;14.25;7.07;;;;;;;;;;6346773;27;20023;-81
2023/05/05 03:26:17;;;;;;;11.23;7.30;;;;;;;;;;6355695;27;20072;-81
2023/05/05 03:29:17;;;;;;;15.07;7.97;;;;;;;;;;6356124;27;20012;-81
2023/05/05 03:32:18;;;;;;;14.73;7.32;;;;;;;;;;6350250;27;20023;-80
2023/05/05 03:35:19;;;;;;;17.10;6.68;;;;;;;;;;6351250;27;20019;-81
2023/05/05 03:38:19;;;;;;;14.03;6.70;;;;;;;;;;6363368;27;20026;-81
2023/05/05 03:41:20;;;;;;;19.42;8.40;;;;;;;;;;6345386;27;20039;-82
2023/05/05 03:44:21;;;;;;;13.50;7.32;;;;;;;;;;6338866;27;20030;-82
2023/05/05 03:47:23;;;;;;;15.45;7.70;;;;;;;;;;6355673;27;20049;-81
2023/05/05 03:50:23;;;;;;;14.23;7.03;;;;;;;;;;6350351;27;20023;-81
2023/05/05 03:53:23;;;;;;;15.35;6.35;;;;;;;;;;6342533;28;20043;-81
2023/05/05 03:56:24;;;;;;;12.57;6.38;;;;;;;;;;6353364;27;20023;-81
2023/05/05 03:59:24;;;;;;;12.23;7.13;;;;;;;;;;6340451;27;20020;-81
2023/05/05 04:02:24;;;;;;;13.05;7.05;;;;;;;;;;6359796;27;20027;-81
2023/05/05 04:05:24;;;;;;;14.63;7.73;;;;;;;;;;6329697;27;20016;-81
2023/05/05 04:08:25;;;;;;;15.52;7.70;;;;;;;;;;6345575;27;20760;-81
2023/05/05 04:11:25;;;;;;;18.38;7.85;;;;;;;;;;6345178;27;20026;-81
2023/05/05 04:14:25;;;;;;;15.75;6.55;;;;;;;;;;6351395;27;20372;-81
2023/05/05 04:17:25;;;;;;;11.18;5.97;;;;;;;;;;6368534;27;20503;-81
2023/05/05 04:20:26;;;;;;;14.63;7.03;;;;;;;;;;6349286;27;20019;-81
2023/05/05 04:23:26;;;;;;;13.67;6.70;;;;;;;;;;6344831;28;20305;-81
2023/05/05 04:26:26;;;;;;;12.90;6.77;;;;;;;;;;6358531;27;20265;-81
2023/05/05 04:29:26;;;;;;;14.48;6.85;;;;;;;;;;6326497;28;20277;-81
2023/05/05 04:32:28;;;;;;;15.05;7.35;;;;;;;;;;6355364;27;20072;-81
2023/05/05 04:35:28;;;;;;;11.05;7.40;;;;;;;;;;6335110;27;20473;-81
2023/05/05 04:38:28;;;;;;;13.82;6.47;;;;;;;;;;6350695;27;20053;-81
2023/05/05 04:41:28;;;;;;;22.15;8.02;;;;;;;;;;6348997;27;20401;-81
2023/05/05 04:44:28;;;;;;;13.23;7.03;;;;;;;;;;6358359;27;20031;-81
2023/05/05 04:47:29;;;;;;;13.98;6.40;;;;;;;;;;6332396;28;20047;-81
2023/05/05 04:50:29;;;;;;;12.73;7.57;;;;;;;;;;6353732;28;20034;-80
2023/05/05 04:53:29;;;;;;;16.97;8.77;;;;;;;;;;6360233;28;20023;-80
2023/05/05 04:56:30;;;;;;;14.55;8.00;;;;;;;;;;6361452;27;20472;-80
2023/05/05 04:59:30;;;;;;;13.70;7.40;;;;;;;;;;6351579;27;20020;-80
2023/05/05 05:02:30;;;;;;;14.67;7.67;;;;;;;;;;6347597;28;20023;-80
2023/05/05 05:05:31;;;;;;;17.93;6.97;;;;;;;;;;6360362;28;20031;-81
2023/05/05 05:08:31;;;;;;;14.32;7.80;;;;;;;;;;6353563;27;20030;-81
2023/05/05 05:11:31;;;;;;;12.32;7.85;;;;;;;;;;6355252;28;20678;-77
2023/05/05 05:14:35;;;;;;;14.83;7.40;;;;;;;;;;6358627;28;20019;-77
2023/05/05 05:17:35;;;;;;;15.38;8.23;;;;;;;;;;6365079;28;20060;-77
2023/05/05 05:20:36;;;;;;;11.93;7.53;;;;;;;;;;6352880;28;20023;-77
2023/05/05 05:23:36;;;;;;;15.23;8.53;;;;;;;;;;6350850;28;20386;-77
2023/05/05 05:26:39;;;;;;;16.20;8.27;;;;;;;;;;6353651;28;20020;-77
2023/05/05 05:29:39;;;;;;;15.00;6.72;;;;;;;;;;6362537;28;20031;-77
2023/05/05 05:32:39;;;;;;;10.30;6.57;;;;;;;;;;6362241;28;20015;-77
2023/05/05 05:35:40;;;;;;;13.27;6.67;;;;;;;;;;6362645;28;20069;-77
2023/05/05 05:38:40;;;;;;;12.87;6.63;;;;;;;;;;6349310;28;20024;-77
2023/05/05 05:41:40;;;;;;;11.90;6.07;;;;;;;;;;6344310;28;20527;-77
2023/05/05 05:44:40;;;;;;;10.32;6.43;;;;;;;;;;6350086;28;20027;-77
2023/05/05 05:47:40;;;;;;;10.50;6.17;;;;;;;;;;6359738;28;20047;-77
2023/05/05 05:50:41;;;;;;;14.33;6.37;;;;;;;;;;6348662;28;20003;-77
2023/05/05 05:53:41;;;;;;;10.30;5.63;;;;;;;;;;6343806;28;20012;-77
2023/05/05 05:56:41;;;;;;;10.77;5.70;;;;;;;;;;6356234;27;20023;-77
2023/05/05 05:59:41;;;;;;;15.27;5.80;;;;;;;;;;6344838;27;20465;-77
2023/05/05 06:02:42;;;;;;;7.10;4.57;;;;;;;;;;6352333;27;20068;-77
2023/05/05 06:05:43;;;;;;;13.33;5.00;;;;;;;;;;6360278;27;20067;-77
2023/05/05 06:08:43;;;;;;;10.35;5.75;;;;;;;;;;6358830;27;20024;-77
2023/05/05 06:11:43;;;;;;;11.13;5.27;;;;;;;;;;6366586;27;20488;-80
2023/05/05 06:14:44;;;;;;;10.87;4.87;;;;;;;;;;6359603;27;20026;-81
2023/05/05 06:17:44;;;;;;;8.67;5.10;;;;;;;;;;6362414;27;20164;-81
2023/05/05 06:20:47;;;;;;;15.67;6.10;;;;;;;;;;6368863;27;20088;-82
2023/05/05 06:23:47;;;;;;;11.32;5.57;;;;;;;;;;6357669;27;20119;-81
2023/05/05 06:26:48;;;;;;;13.03;5.63;;;;;;;;;;6360109;27;20028;-81
2023/05/05 06:29:48;;;;;;;10.30;4.30;;;;;;;;;;6359285;27;20023;-80
2023/05/05 06:32:48;;;;;;;11.07;4.73;;;;;;;;;;6359626;27;20031;-80
2023/05/05 06:35:50;;;;;;;8.30;4.80;;;;;;;;;;6357408;27;20019;-81
2023/05/05 06:38:50;;;;;;;12.57;5.43;;;;;;;;;;6355708;27;20038;-81
2023/05/05 06:41:51;;;;;;;10.73;5.43;;;;;;;;;;6351863;27;20377;-81
2023/05/05 06:44:51;;;;;;;7.20;4.20;;;;;;;;;;6361723;27;20402;-79
2023/05/05 06:47:52;;;;;;;9.87;4.23;;;;;;;;;;6357935;27;20047;-80
2023/05/05 06:50:52;;;;;;;8.67;4.23;;;;;;;;;;6366138;27;20023;-79
2023/05/05 06:53:52;;;;;;;;;;;;;;;;;;6359076;27;20126;-79
2023/05/05 06:56:52;;;;;;;7.10;3.80;;;;;;;;;;6365844;27;20362;-78
2023/05/05 06:59:52;;;;;;;;;;;;;;;;;;6370458;27;20031;-81
2023/05/05 07:02:53;;;;;;;9.32;3.72;;;;;;;;;;6362767;27;19939;-81
2023/05/05 07:05:53;;;;;;;;;;;;;;;;;;6354296;27;20034;-79
2023/05/05 07:08:54;;;;;;;6.63;3.05;;;;;;;;;;6351794;27;19916;-79
2023/05/05 07:11:54;;;;;;;;;;;;;;;;;;6361588;27;20027;-79
2023/05/05 07:14:55;;;;;;;8.82;3.88;;;;;;;;;;6364778;27;19911;-78
2023/05/05 07:17:55;;;;;;;;;;;;;;;;;;6370105;27;20023;-79
2023/05/05 07:20:55;;;;;;;10.03;4.10;;;;;;;;;;6353832;27;19907;-79
2023/05/05 07:23:55;;;;;;;;;;;;;;;;;;6360753;27;20043;-79
2023/05/05 07:26:56;;;;;;;5.75;2.75;;;;;;;;;;6360229;27;19907;-79
2023/05/05 07:29:57;;;;;;;8.23;2.85;;;;;;;;;;6356690;27;20484;-79
2023/05/05 07:32:57;;;;;;;;;;;;;;;;;;6333325;27;20039;-79
2023/05/05 07:35:57;;;;;;;3.42;2.40;;;;;;;;;;6353582;27;19910;-79
2023/05/05 07:38:57;;;;;;;;;;;;;;;;;;6358090;27;20800;-79
2023/05/05 07:41:57;;;;;;;3.28;2.45;;;;;;;;;;6351943;27;20360;-79
2023/05/05 07:44:58;;;;;;;;;;;;;;;;;;6359569;27;20050;-79
2023/05/05 07:47:58;;;;;;;3.78;2.33;;;;;;;;;;6356815;27;19924;-79
2023/05/05 07:50:58;;;;;;;;;;;;;;;;;;6356681;27;20027;-78
2023/05/05 07:53:58;;;;;;;3.43;2.23;;;;;;;;;;6355543;27;19908;-78
2023/05/05 07:56:59;;;;;;;5.43;2.63;;;;;;;;;;6353547;27;20344;-78
2023/05/05 07:59:59;;;;;;;;;;;;;;;;;;6356396;27;20103;-78
2023/05/05 08:02:59;;;;;;;7.13;2.92;;;;;;;;;;6358905;27;20333;-80
2023/05/05 08:06:05;;;;;;;4.60;2.30;;;;;;;;;;6360199;27;20026;-80
2023/05/05 08:09:05;;;;;;;4.60;2.03;;;;;;;;;;6360371;27;20069;-80
2023/05/05 08:12:05;;;;;;;;;;;;;;;;;;6347751;27;20540;-79
2023/05/05 08:15:05;;;;;;;13.23;7.43;;;;;;;;;;6340128;27;19918;-80
2023/05/05 08:18:06;;;;;;;;;;;;;;;;;;6353892;27;20026;-80
2023/05/05 08:21:07;;;;;;;4.18;1.92;;;;;;;;;;6346788;27;20383;-80
2023/05/05 08:24:07;;;;;;;;;;;;;;;;;;6356922;27;20030;-80
2023/05/05 08:27:07;;;;;;;4.22;1.92;;;;;;;;;;6336466;27;19907;-80
2023/05/05 08:30:08;;;;;;;;;;;;;;;;;;6361606;27;20015;-79
2023/05/05 08:33:08;;;;;;;5.80;2.63;;;;;;;;;;6355913;27;19912;-80
2023/05/05 08:36:08;;;;;;;;;;;;;;;;;;6341469;27;20046;-80
2023/05/05 08:39:08;;;;;;;2.75;1.63;;;;;;;;;;6362275;27;19998;-81
2023/05/05 08:42:08;;;;;;;3.08;1.60;;;;;;;;;;6359474;27;20019;-80
2023/05/05 08:45:09;;;;;;;4.03;2.27;;;;;;;;;;6349904;27;20061;-80
2023/05/05 08:48:10;;;;;;;2.30;1.53;;;;;;;;;;6333558;27;20066;-81
2023/05/05 08:51:18;;;;;;;4.20;2.05;;;;;;;;;;6344670;28;20026;-80
2023/05/05 08:54:19;;;;;;;2.90;2.10;;;;;;;;;;6350455;28;20030;-80
2023/05/05 08:57:23;;;;;;;3.55;2.50;;;;;;;;;;6345216;27;20420;-79
2023/05/05 09:00:25;;;;;;;2.90;1.60;;;;;;;;;;6357224;28;20478;-80
2023/05/05 09:03:26;;;;;;;5.82;2.10;;;;;;;;;;6350768;28;20041;-80
2023/05/05 09:06:27;;;;;;;3.97;2.00;;;;;;;;;;6346827;28;20019;-80
2023/05/05 09:09:28;;;;;;;7.07;2.38;;;;;;;;;;6352634;28;20088;-79
2023/05/05 09:12:30;;;;;;;3.53;2.17;;;;;;;;;;6355027;28;20442;-80
2023/05/05 09:15:31;;;;;;;7.13;1.90;;;;;;;;;;6354621;28;20019;-80
2023/05/05 09:18:35;;;;;;;9.80;1.90;;;;;;;;;;6354166;28;20090;-79
2023/05/05 09:21:39;;;;;;;3.60;1.75;;;;;;;;;;6361216;28;20080;-80
2023/05/05 09:24:53;;;;;;;4.82;2.00;;;;;;;;;;6358878;28;20107;-80
2023/05/05 09:27:53;;;;;;;4.28;1.90;;;;;;;;;;6353696;28;20038;-80
2023/05/05 09:30:54;;;;;;;4.53;1.80;;;;;;;;;;6362616;27;20027;-80
2023/05/05 09:33:55;;;;;;;5.23;1.83;;;;;;;;;;6356707;27;20024;-81
2023/05/05 09:36:56;;;;;;;2.90;1.80;;;;;;;;;;6345230;27;20030;-80
2023/05/05 09:39:57;;;;;;;3.27;1.93;;;;;;;;;;6357991;27;20032;-81
2023/05/05 09:42:57;;;;;;;;;;;;;;;;;;6349890;27;20020;-81
2023/05/05 09:46:04;;;;;;;3.72;1.77;;;;;;;;;;6348464;27;19915;-81
2023/05/05 09:49:11;;;;;;;3.58;1.80;;;;;;;;;;6362976;27;20130;-81
2023/05/05 09:52:14;;;;;;;4.22;2.28;;;;;;;;;;6357851;27;20019;-81
2023/05/05 09:55:17;;;;;;;4.45;1.90;;;;;;;;;;6351174;27;21740;-80
2023/05/05 09:58:18;;;;;;;2.42;1.85;;;;;;;;;;6362831;27;20102;-80
2023/05/05 10:01:22;;;;;;;5.45;2.03;;;;;;;;;;6353297;27;20510;-77
2023/05/05 10:04:27;;;;;;;4.90;2.10;;;;;;;;;;6350964;27;20040;-77
2023/05/05 10:07:27;;;;;;;2.90;1.70;;;;;;;;;;6350820;27;20106;-77
2023/05/05 10:10:30;;;;;;;4.45;1.92;;;;;;;;;;6349478;27;20024;-77
2023/05/05 10:13:34;;;;;;;6.65;2.50;;;;;;;;;;6370734;27;20007;-77
2023/05/05 10:16:34;;;;;;;5.63;2.50;;;;;;;;;;6354055;27;20034;-77
2023/05/05 10:19:35;;;;;;;8.77;1.97;;;;;;;;;;6360998;27;20105;-77
2023/05/05 10:22:37;;;;;;;3.42;1.70;;;;;;;;;;6366108;27;20107;-77
2023/05/05 10:25:40;;;;;;;5.30;2.03;;;;;;;;;;6358046;27;20043;-77
2023/05/05 10:28:44;;;;;;;4.93;2.03;;;;;;;;;;6358150;27;20019;-77
2023/05/05 10:31:48;;;;;;;4.38;2.70;;;;;;;;;;6369637;27;20022;-77
2023/05/05 10:34:50;;;;;;;6.85;1.88;;;;;;;;;;6352208;27;20035;-77
2023/05/05 10:37:51;;;;;;;5.32;2.53;;;;;;;;;;6365814;27;20088;-77
2023/05/05 10:40:51;;;;;;;3.13;2.00;;;;;;;;;;6355935;27;20023;-77
2023/05/05 10:43:54;;;;;;;3.80;2.00;;;;;;;;;;6352132;27;20016;-77
2023/05/05 10:46:54;;;;;;;3.97;2.58;;;;;;;;;;6327817;27;20031;-77
2023/05/05 10:50:13;;;;;;;4.50;2.10;;;;;;;;;;6354513;27;20509;-77
2023/05/05 10:53:16;;;;;;;4.35;2.40;;;;;;;;;;6359748;27;20071;-77
2023/05/05 10:56:29;;;;;;;5.32;2.28;;;;;;;;;;6364114;27;20022;-77
2023/05/05 10:59:38;;;;;;;4.97;2.35;;;;;;;;;;6362068;27;20031;-77
2023/05/05 11:02:38;;;;;;;6.85;2.85;;;;;;;;;;6338550;27;20469;-77
2023/05/05 11:05:59;;;;;;;5.80;2.63;;;;;;;;;;6351997;27;20015;-77
2023/05/05 11:09:19;;;;;;;2.72;2.22;;;;;;;;;;6357296;27;20499;-77
2023/05/05 11:12:19;;;;;;;5.75;2.83;;;;;;;;;;6362568;27;20012;-77
2023/05/05 11:15:23;;;;;;;8.00;2.53;;;;;;;;;;6333242;27;20012;-77
2023/05/05 11:18:36;;;;;;;4.35;2.40;;;;;;;;;;6353125;27;20072;-77
2023/05/05 11:21:56;;;;;;;4.30;2.40;;;;;;;;;;6353934;27;20016;-77
2023/05/05 11:24:56;;;;;;;5.40;2.70;;;;;;;;;;6358844;27;20054;-77
2023/05/05 11:28:07;;;;;;;4.40;2.87;;;;;;;;;;6355798;27;20477;-77
2023/05/05 11:31:17;;;;;;;6.20;2.85;;;;;;;;;;6355987;27;20027;-77
2023/05/05 11:34:26;;;;;;;7.05;2.63;;;;;;;;;;6362134;27;20023;-77
2023/05/05 11:37:27;;;;;;;2.70;1.95;;;;;;;;;;6353881;27;20477;-77
2023/05/05 11:40:30;;;;;;;5.27;2.20;;;;;;;;;;6354484;27;20054;-77
2023/05/05 11:43:30;;;;;;;3.90;2.42;;;;;;;;;;6341939;27;20079;-77
2023/05/05 11:46:30;;;;;;;4.43;2.47;;;;;;;;;;6353008;27;20020;-77
2023/05/05 11:49:37;;;;;;;6.20;2.60;;;;;;;;;;6358907;27;20088;-77
2023/05/05 11:52:37;;;;;;;7.15;2.85;;;;;;;;;;6352240;27;20530;-77
2023/05/05 11:55:37;;;;;;;3.23;2.17;;;;;;;;;;6358006;27;20011;-77
2023/05/05 11:58:38;;;;;;;4.30;2.17;;;;;;;;;;6358583;27;20019;-77
2023/05/05 12:01:39;;;;;;;3.97;2.40;;;;;;;;;;6335021;27;20030;-79
2023/05/05 12:04:39;;;;;;;6.35;2.67;;;;;;;;;;6353302;27;20459;-80
2023/05/05 12:07:40;;;;;;;3.57;2.30;;;;;;;;;;6364034;27;20024;-80
2023/05/05 12:10:40;;;;;;;3.97;2.23;;;;;;;;;;6363057;27;20027;-80
2023/05/05 12:13:40;;;;;;;4.20;1.83;;;;;;;;;;6354495;27;20015;-80
2023/05/05 12:16:52;;;;;;;3.97;2.10;;;;;;;;;;6358399;27;20022;-80
2023/05/05 12:19:53;;;;;;;3.42;2.47;;;;;;;;;;6356412;27;20360;-77
2023/05/05 12:22:53;;;;;;;;;;;;;;;;;;6355077;27;20136;-77
2023/05/05 12:25:53;;;;;;;4.93;2.50;;;;;;;;;;6357768;27;20936;-77
2023/05/05 12:28:54;;;;;;;4.97;2.00;;;;;;;;;;6357613;27;20072;-77
2023/05/05 12:31:56;;;;;;;3.60;2.17;;;;;;;;;;6353889;27;20079;-77
2023/05/05 12:34:56;;;;;;;3.60;2.03;;;;;;;;;;6356103;27;20019;-77
2023/05/05 12:37:57;;;;;;;4.77;2.20;;;;;;;;;;6368680;27;20019;-77
2023/05/05 12:40:57;;;;;;;6.70;2.60;;;;;;;;;;6363884;27;20469;-77
2023/05/05 12:43:58;;;;;;;3.58;2.15;;;;;;;;;;6356719;27;20026;-77
2023/05/05 12:46:58;;;;;;;3.08;2.08;;;;;;;;;;6354651;27;20032;-77
2023/05/05 12:49:59;;;;;;;;;;;;;;;;;;6359951;27;20023;-76
2023/05/05 12:52:59;;;;;;;4.70;2.65;;;;;;;;;;6356543;28;19915;-76
2023/05/05 12:55:59;;;;;;;;;;;;;;;;;;6355455;27;20467;-76
2023/05/05 12:59:09;;;;;;;3.20;2.30;;;;;;;;;;6359280;27;19952;-76
2023/05/05 13:02:10;;;;;;;4.25;1.60;;;;;;;;;;6352513;28;20034;-76
2023/05/05 13:05:10;;;;;;;;;;;;;;;;;;6356041;27;20472;-76
2023/05/05 13:08:11;;;;;;;3.88;2.13;;;;;;;;;;6331640;27;19980;-76
2023/05/05 13:11:11;;;;;;;6.32;2.10;;;;;;;;;;6354925;27;20022;-76
2023/05/05 13:14:11;;;;;;;;;;;;;;;;;;6358990;27;20476;-76
2023/05/05 13:17:12;;;;;;;4.63;2.45;;;;;;;;;;6358965;27;20411;-76
2023/05/05 13:20:14;;;;;;;;;;;;;;;;;;6354591;27;20077;-75
2023/05/05 13:23:14;;;;;;;4.88;2.40;;;;;;;;;;6356599;27;20384;-76
2023/05/05 13:26:14;;;;;;;;;;;;;;;;;;6359758;27;20015;-76
2023/05/05 13:29:17;;;;;;;2.85;1.77;;;;;;;;;;6363713;27;19937;-75
2023/05/05 13:32:18;;;;;;;3.25;2.13;;;;;;;;;;6368606;27;20346;-75
2023/05/05 13:35:18;;;;;;;;;;;;;;;;;;6364642;27;20019;-75
2023/05/05 13:38:19;;;;;;;4.88;2.42;;;;;;;;;;6351570;27;19930;-75
2023/05/05 13:41:19;;;;;;;;;;;;;;;;;;6350102;27;20172;-76
2023/05/05 13:44:19;;;;;;;5.15;1.98;;;;;;;;;;6367124;27;19903;-76
2023/05/05 13:47:19;;;;;;;;;;;;;;;;;;6361676;27;20036;-76
2023/05/05 13:50:20;;;;;;;4.20;2.20;;;;;;;;;;6354805;27;19952;-76
2023/05/05 13:53:20;;;;;;;5.88;2.22;;;;;;;;;;6348168;27;20016;-76
2023/05/05 13:56:24;;;;;;;4.07;1.97;;;;;;;;;;6359129;27;20019;-76
2023/05/05 13:59:24;;;;;;;4.50;2.03;;;;;;;;;;6363883;27;20007;-76
2023/05/05 14:02:25;;;;;;;4.60;2.10;;;;;;;;;;6356057;27;20015;-76
2023/05/05 14:05:25;;;;;;;3.97;2.07;;;;;;;;;;6360123;27;20478;-75
2023/05/05 14:08:25;;;;;;;4.88;1.83;;;;;;;;;;6358407;27;20011;-76
2023/05/05 14:11:25;;;;;;;;;;;;;;;;;;6365624;27;20509;-75
2023/05/05 14:14:25;;;;;;;4.22;2.00;;;;;;;;;;6355720;27;19915;-76
2023/05/05 14:17:26;;;;;;;;;;;;;;;;;;6368044;27;20007;-75
2023/05/05 14:20:26;;;;;;;1.98;1.65;;;;;;;;;;6356247;27;19903;-78
2023/05/05 14:23:26;;;;;;;;;;;;;;;;;;6359110;27;20544;-78
2023/05/05 14:26:28;;;;;;;5.78;2.00;;;;;;;;;;6364306;27;19966;-79
2023/05/05 14:29:28;;;;;;;5.78;1.85;;;;;;;;;;6369872;27;20030;-79
2023/05/05 14:32:28;;;;;;;;;;;;;;;;;;6365143;27;20023;-79
2023/05/05 14:35:29;;;;;;;3.38;1.95;;;;;;;;;;6361809;27;19947;-78
2023/05/05 14:38:30;;;;;;;;;;;;;;;;;;6351511;27;20027;-79
2023/05/05 14:41:30;;;;;;;4.93;2.10;;;;;;;;;;6368827;27;19903;-78
2023/05/05 14:44:30;;;;;;;3.87;1.87;;;;;;;;;;6337838;27;20346;-79
2023/05/05 14:47:32;;;;;;;2.23;2.03;;;;;;;;;;6366642;27;20043;-79
2023/05/05 14:50:32;;;;;;;3.58;2.08;;;;;;;;;;6348951;27;20027;-79
2023/05/05 14:53:33;;;;;;;3.92;2.05;;;;;;;;;;6365074;27;21048;-79
2023/05/05 14:56:33;;;;;;;4.75;2.20;;;;;;;;;;6361591;27;20031;-79
2023/05/05 14:59:33;;;;;;;2.47;1.60;;;;;;;;;;6334833;27;20035;-79
2023/05/05 15:02:35;;;;;;;3.80;1.97;;;;;;;;;;6352424;27;20635;-79
2023/05/05 15:05:35;;;;;;;4.28;1.83;;;;;;;;;;6358804;27;20023;-79
2023/05/05 15:08:37;;;;;;;4.40;1.67;;;;;;;;;;6359426;27;20019;-79
2023/05/05 15:11:40;;;;;;;3.08;2.10;;;;;;;;;;6348679;27;20037;-79
2023/05/05 15:14:40;;;;;;;5.75;2.42;;;;;;;;;;6358638;27;20057;-78
2023/05/05 15:17:42;;;;;;;3.03;1.67;;;;;;;;;;6354835;27;20027;-79
2023/05/05 15:20:42;;;;;;;3.55;2.13;;;;;;;;;;6352728;27;20043;-79
2023/05/05 15:23:42;;;;;;;7.53;2.50;;;;;;;;;;6358344;27;20031;-78
2023/05/05 15:26:42;;;;;;;4.57;1.77;;;;;;;;;;6343250;27;20031;-78
2023/05/05 15:29:43;;;;;;;6.78;2.08;;;;;;;;;;6356372;27;20391;-78
2023/05/05 15:32:44;;;;;;;5.53;2.38;;;;;;;;;;6363426;27;20235;-78
2023/05/05 15:35:44;;;;;;;6.63;2.40;;;;;;;;;;6357072;27;20035;-78
2023/05/05 15:38:45;;;;;;;2.80;1.88;;;;;;;;;;6348010;27;20051;-78
2023/05/05 15:41:45;;;;;;;3.13;1.60;;;;;;;;;;6362404;27;20034;-78
2023/05/05 15:44:45;;;;;;;5.17;1.70;;;;;;;;;;6353099;27;20059;-77
2023/05/05 15:47:46;;;;;;;3.70;2.10;;;;;;;;;;6360262;27;20039;-77
2023/05/05 15:50:49;;;;;;;3.85;2.08;;;;;;;;;;6359254;27;20020;-76
2023/05/05 15:53:51;;;;;;;4.18;1.98;;;;;;;;;;6357662;27;20022;-76
2023/05/05 15:56:51;;;;;;;;;;;;;;;;;;6359050;27;20015;-75
2023/05/05 15:59:51;;;;;;;3.70;1.92;;;;;;;;;;6364468;27;20007;-76
2023/05/05 16:02:51;;;;;;;2.20;1.70;;;;;;;;;;6359891;27;20362;-76
2023/05/05 16:05:52;;;;;;;5.90;2.78;;;;;;;;;;6362397;27;20441;-76
2023/05/05 16:08:52;;;;;;;6.68;1.92;;;;;;;;;;6361153;27;20556;-76
2023/05/05 16:11:53;;;;;;;5.53;2.43;;;;;;;;;;6347420;27;20023;-76
2023/05/05 16:14:54;;;;;;;3.88;2.38;;;;;;;;;;6351447;27;20023;-76
2023/05/05 16:17:55;;;;;;;;;;;;;;;;;;6347211;27;20040;-76
2023/05/05 16:20:55;;;;;;;3.67;1.90;;;;;;;;;;6364536;27;19939;-76
2023/05/05 16:23:55;;;;;;;4.27;2.40;;;;;;;;;;6351279;27;20049;-76
2023/05/05 16:26:56;;;;;;;4.67;2.50;;;;;;;;;;6360420;27;20027;-76
2023/05/05 16:29:56;;;;;;;3.53;2.50;;;;;;;;;;6348439;27;20036;-76
2023/05/05 16:32:56;;;;;;;4.53;1.97;;;;;;;;;;6354063;27;20016;-76
2023/05/05 16:35:56;;;;;;;6.63;2.60;;;;;;;;;;6362399;27;20105;-76
2023/05/05 16:38:57;;;;;;;3.73;2.20;;;;;;;;;;6350693;27;20066;-76
2023/05/05 16:41:57;;;;;;;5.40;2.63;;;;;;;;;;6361866;27;20042;-76
2023/05/05 16:44:57;;;;;;;4.97;2.37;;;;;;;;;;6347862;28;20393;-76
2023/05/05 16:47:57;;;;;;;6.80;2.50;;;;;;;;;;6350116;27;20035;-76
2023/05/05 16:51:00;;;;;;;7.03;2.65;;;;;;;;;;6358096;27;20504;-76
2023/05/05 16:54:00;;;;;;;4.80;2.53;;;;;;;;;;6348773;27;20080;-76
2023/05/05 16:57:02;;;;;;;8.85;3.55;;;;;;;;;;6347776;27;20706;-76
2023/05/05 17:00:03;;;;;;;4.57;2.30;;;;;;;;;;6352394;27;20015;-79
2023/05/05 17:03:04;;;;;;;;;;;;;;;;;;6362389;28;20050;-79
2023/05/05 17:06:04;;;;;;;6.90;2.47;;;;;;;;;;6348837;28;20071;-78
2023/05/05 17:09:05;;;;;;;6.30;2.53;;;;;;;;;;6341803;28;20067;-78
2023/05/05 17:12:05;;;;;;;10.53;3.40;;;;;;;;;;6361060;28;20015;-79
2023/05/05 17:15:06;;;;;;;7.87;3.00;;;;;;;;;;6362359;28;20469;-78
2023/05/05 17:18:06;;;;;;;6.75;3.63;;;;;;;;;;6346780;28;20026;-79
2023/05/05 17:21:07;;;;;;;8.70;4.30;;;;;;;;;;6357119;28;20378;-79
2023/05/05 17:24:07;;;;;;;10.50;3.40;;;;;;;;;;6363245;28;20015;-78
2023/05/05 17:27:07;;;;;;;5.50;2.67;;;;;;;;;;6357223;28;20023;-78
2023/05/05 17:30:08;;;;;;;8.60;2.87;;;;;;;;;;6357919;28;20029;-79
2023/05/05 17:33:08;;;;;;;5.13;2.70;;;;;;;;;;6358109;28;20039;-79
2023/05/05 17:36:08;;;;;;;5.05;2.67;;;;;;;;;;6361998;28;20023;-79
2023/05/05 17:39:10;;;;;;;6.70;3.20;;;;;;;;;;6356767;28;20145;-79
2023/05/05 17:42:11;;;;;;;7.50;3.33;;;;;;;;;;6357032;28;20464;-79
2023/05/05 17:45:12;;;;;;;5.97;3.42;;;;;;;;;;6361913;28;20442;-79
2023/05/05 17:48:12;;;;;;;4.90;3.13;;;;;;;;;;6351770;28;20075;-79
2023/05/05 17:51:12;;;;;;;7.17;3.37;;;;;;;;;;6357142;27;20027;-79
2023/05/05 17:54:12;;;;;;;6.03;3.17;;;;;;;;;;6369284;27;20051;-79
2023/05/05 17:57:12;;;;;;;6.18;3.17;;;;;;;;;;6353710;27;20027;-79
2023/05/05 18:00:13;;;;;;;11.43;4.00;;;;;;;;;;6365121;27;20026;-79
2023/05/05 18:03:13;;;;;;;9.93;3.90;;;;;;;;;;6360539;27;20027;-79
2023/05/05 18:06:14;;;;;;;5.00;3.07;;;;;;;;;;6361941;27;20607;-79
2023/05/05 18:09:15;;;;;;;7.67;3.60;;;;;;;;;;6363200;27;20023;-79
2023/05/05 18:12:16;;;;;;;8.77;3.67;;;;;;;;;;6336693;27;20051;-76
2023/05/05 18:15:16;;;;;;;5.47;3.17;;;;;;;;;;6350845;27;20503;-76
2023/05/05 18:18:16;;;;;;;7.83;3.13;;;;;;;;;;6348093;27;20538;-76